Аэропорт: Ивано-Франковск. Ивано-Франковск

ICAO: UKLI

METAR:
2019/05/26 14:00
UKLI 261400Z 15002MPS 100V210 9999 BKN043 BKN100 24/11 Q1014 R10/090070 NOSIG
METAR:
2019/02/01 12:09
TAF 
      AMD TAF 
      AMD UKLI 011205Z 0112/0124 VRB01MPS 3000 BR BKN008 TX02/0112Z TNM03/0118Z 
      TEMPO 0114/0121 0200 FZFG VV003